sensor_id;sensor_type;location;lat;lon;timestamp;pressure;altitude;pressure_sealevel;temperature;humidity
48553;BME280;34335;51.566;6.994;2022-12-18T00:01:35;102312.22;;;-9.91;100.00
48553;BME280;34335;51.566;6.994;2022-12-18T00:04:04;102312.84;;;-9.85;100.00
48553;BME280;34335;51.566;6.994;2022-12-18T00:06:31;102316.72;;;-9.57;100.00
48553;BME280;34335;51.566;6.994;2022-12-18T00:08:58;102315.13;;;-9.79;100.00
48553;BME280;34335;51.566;6.994;2022-12-18T00:11:27;102321.00;;;-9.88;100.00
48553;BME280;34335;51.566;6.994;2022-12-18T00:13:55;102320.53;;;-9.60;100.00
48553;BME280;34335;51.566;6.994;2022-12-18T00:16:22;102312.41;;;-9.42;100.00
48553;BME280;34335;51.566;6.994;2022-12-18T00:18:49;102318.88;;;-9.60;100.00
48553;BME280;34335;51.566;6.994;2022-12-18T00:21:15;102311.66;;;-9.73;100.00
48553;BME280;34335;51.566;6.994;2022-12-18T00:23:42;102308.03;;;-9.67;100.00
48553;BME280;34335;51.566;6.994;2022-12-18T00:26:14;102302.91;;;-9.44;100.00
48553;BME280;34335;51.566;6.994;2022-12-18T00:28:40;102301.75;;;-9.39;100.00
48553;BME280;34335;51.566;6.994;2022-12-18T00:31:08;102301.00;;;-9.22;100.00
48553;BME280;34335;51.566;6.994;2022-12-18T00:33:34;102294.31;;;-9.37;100.00
48553;BME280;34335;51.566;6.994;2022-12-18T00:36:04;102294.75;;;-9.74;100.00
48553;BME280;34335;51.566;6.994;2022-12-18T00:38:30;102294.50;;;-9.84;100.00
48553;BME280;34335;51.566;6.994;2022-12-18T00:40:56;102300.28;;;-10.01;100.00
48553;BME280;34335;51.566;6.994;2022-12-18T00:43:21;102302.63;;;-10.03;100.00
48553;BME280;34335;51.566;6.994;2022-12-18T00:45:46;102302.78;;;-9.85;100.00
48553;BME280;34335;51.566;6.994;2022-12-18T00:48:12;102308.81;;;-9.76;100.00
48553;BME280;34335;51.566;6.994;2022-12-18T00:50:37;102309.78;;;-9.98;100.00
48553;BME280;34335;51.566;6.994;2022-12-18T00:53:03;102301.41;;;-9.90;100.00
48553;BME280;34335;51.566;6.994;2022-12-18T00:55:28;102308.47;;;-9.95;100.00
48553;BME280;34335;51.566;6.994;2022-12-18T00:57:54;102307.56;;;-10.11;100.00
48553;BME280;34335;51.566;6.994;2022-12-18T01:00:19;102304.22;;;-10.19;100.00
48553;BME280;34335;51.566;6.994;2022-12-18T01:02:44;102299.78;;;-10.06;100.00
48553;BME280;34335;51.566;6.994;2022-12-18T01:05:11;102304.31;;;-9.94;100.00
48553;BME280;34335;51.566;6.994;2022-12-18T01:07:37;102304.44;;;-9.86;100.00
48553;BME280;34335;51.566;6.994;2022-12-18T01:10:04;102309.94;;;-9.97;100.00
48553;BME280;34335;51.566;6.994;2022-12-18T01:12:29;102305.53;;;-10.07;100.00
48553;BME280;34335;51.566;6.994;2022-12-18T01:14:54;102306.47;;;-10.29;100.00
48553;BME280;34335;51.566;6.994;2022-12-18T01:17:20;102307.19;;;-10.30;100.00
48553;BME280;34335;51.566;6.994;2022-12-18T01:19:46;102305.50;;;-10.39;100.00
48553;BME280;34335;51.566;6.994;2022-12-18T01:22:11;102306.63;;;-10.28;100.00
48553;BME280;34335;51.566;6.994;2022-12-18T01:24:36;102307.34;;;-10.06;100.00
48553;BME280;34335;51.566;6.994;2022-12-18T01:27:02;102306.75;;;-10.03;100.00
48553;BME280;34335;51.566;6.994;2022-12-18T01:29:27;102292.41;;;-9.88;100.00
48553;BME280;34335;51.566;6.994;2022-12-18T01:31:55;102306.13;;;-9.93;100.00
48553;BME280;34335;51.566;6.994;2022-12-18T01:34:21;102302.75;;;-10.17;100.00
48553;BME280;34335;51.566;6.994;2022-12-18T01:36:46;102308.91;;;-10.22;100.00
48553;BME280;34335;51.566;6.994;2022-12-18T01:39:13;102299.56;;;-10.23;100.00
48553;BME280;34335;51.566;6.994;2022-12-18T01:41:39;102303.16;;;-10.21;100.00
48553;BME280;34335;51.566;6.994;2022-12-18T01:47:18;102301.97;;;-10.09;100.00
48553;BME280;34335;51.566;6.994;2022-12-18T01:49:45;102295.59;;;-10.21;100.00
48553;BME280;34335;51.566;6.994;2022-12-18T01:52:10;102299.53;;;-10.16;100.00
48553;BME280;34335;51.566;6.994;2022-12-18T01:54:35;102287.91;;;-10.23;100.00
48553;BME280;34335;51.566;6.994;2022-12-18T01:57:01;102287.16;;;-10.38;100.00
48553;BME280;34335;51.566;6.994;2022-12-18T01:59:27;102290.13;;;-10.49;100.00
48553;BME280;34335;51.566;6.994;2022-12-18T02:01:54;102288.06;;;-10.60;100.00
48553;BME280;34335;51.566;6.994;2022-12-18T02:04:22;102281.13;;;-10.47;100.00
48553;BME280;34335;51.566;6.994;2022-12-18T02:06:54;102283.66;;;-10.47;100.00
48553;BME280;34335;51.566;6.994;2022-12-18T02:09:34;102280.81;;;-10.34;100.00
48553;BME280;34335;51.566;6.994;2022-12-18T02:12:16;102286.81;;;-10.25;100.00
48553;BME280;34335;51.566;6.994;2022-12-18T02:14:58;102291.63;;;-10.19;100.00
48553;BME280;34335;51.566;6.994;2022-12-18T02:17:37;102298.53;;;-10.25;100.00
48553;BME280;34335;51.566;6.994;2022-12-18T02:26:10;102287.47;;;-10.35;100.00
48553;BME280;34335;51.566;6.994;2022-12-18T02:28:47;102276.19;;;-10.38;100.00
48553;BME280;34335;51.566;6.994;2022-12-18T02:31:19;102275.75;;;-10.50;100.00
48553;BME280;34335;51.566;6.994;2022-12-18T02:33:46;102279.44;;;-10.62;100.00
48553;BME280;34335;51.566;6.994;2022-12-18T02:36:14;102280.84;;;-10.57;100.00
48553;BME280;34335;51.566;6.994;2022-12-18T02:38:42;102270.56;;;-10.52;100.00
48553;BME280;34335;51.566;6.994;2022-12-18T02:41:10;102272.34;;;-10.51;100.00
48553;BME280;34335;51.566;6.994;2022-12-18T02:43:36;102285.03;;;-10.42;100.00
48553;BME280;34335;51.566;6.994;2022-12-18T02:46:31;102282.34;;;-10.67;100.00
48553;BME280;34335;51.566;6.994;2022-12-18T02:51:55;102290.97;;;-10.25;100.00
48553;BME280;34335;51.566;6.994;2022-12-18T02:57:04;102279.53;;;-10.14;100.00
48553;BME280;34335;51.566;6.994;2022-12-18T03:00:00;102277.47;;;-10.42;100.00
48553;BME280;34335;51.566;6.994;2022-12-18T03:07:38;102274.66;;;-10.45;100.00
48553;BME280;34335;51.566;6.994;2022-12-18T03:10:07;102283.22;;;-10.43;100.00
48553;BME280;34335;51.566;6.994;2022-12-18T03:12:41;102278.63;;;-10.47;100.00
48553;BME280;34335;51.566;6.994;2022-12-18T03:15:19;102279.50;;;-10.46;100.00
48553;BME280;34335;51.566;6.994;2022-12-18T03:17:54;102274.59;;;-10.38;100.00
48553;BME280;34335;51.566;6.994;2022-12-18T03:20:23;102274.09;;;-10.26;100.00
48553;BME280;34335;51.566;6.994;2022-12-18T03:22:54;102265.41;;;-10.37;100.00
48553;BME280;34335;51.566;6.994;2022-12-18T03:25:21;102259.56;;;-10.45;100.00
48553;BME280;34335;51.566;6.994;2022-12-18T03:27:51;102258.56;;;-10.54;100.00
48553;BME280;34335;51.566;6.994;2022-12-18T03:30:19;102261.44;;;-10.58;100.00
48553;BME280;34335;51.566;6.994;2022-12-18T03:33:01;102260.78;;;-10.65;100.00
48553;BME280;34335;51.566;6.994;2022-12-18T03:35:33;102261.94;;;-10.54;100.00
48553;BME280;34335;51.566;6.994;2022-12-18T03:38:00;102265.69;;;-10.50;100.00
48553;BME280;34335;51.566;6.994;2022-12-18T03:43:46;102271.31;;;-10.37;100.00
48553;BME280;34335;51.566;6.994;2022-12-18T03:46:26;102261.94;;;-10.54;100.00
48553;BME280;34335;51.566;6.994;2022-12-18T03:49:06;102260.28;;;-10.46;100.00
48553;BME280;34335;51.566;6.994;2022-12-18T03:51:43;102259.34;;;-10.39;100.00
48553;BME280;34335;51.566;6.994;2022-12-18T03:54:10;102262.81;;;-10.46;100.00
48553;BME280;34335;51.566;6.994;2022-12-18T03:56:40;102259.31;;;-10.62;100.00
48553;BME280;34335;51.566;6.994;2022-12-18T03:59:07;102269.66;;;-10.75;100.00
48553;BME280;34335;51.566;6.994;2022-12-18T04:01:38;102263.34;;;-10.72;100.00
48553;BME280;34335;51.566;6.994;2022-12-18T04:04:06;102259.44;;;-10.77;100.00
48553;BME280;34335;51.566;6.994;2022-12-18T04:06:33;102260.59;;;-10.66;100.00
48553;BME280;34335;51.566;6.994;2022-12-18T04:09:00;102262.59;;;-10.63;100.00
48553;BME280;34335;51.566;6.994;2022-12-18T04:11:25;102259.31;;;-10.62;100.00
48553;BME280;34335;51.566;6.994;2022-12-18T04:13:55;102260.88;;;-10.56;100.00
48553;BME280;34335;51.566;6.994;2022-12-18T04:16:21;102255.69;;;-10.57;100.00
48553;BME280;34335;51.566;6.994;2022-12-18T04:18:46;102261.72;;;-10.48;100.00
48553;BME280;34335;51.566;6.994;2022-12-18T04:21:12;102250.59;;;-10.50;100.00
48553;BME280;34335;51.566;6.994;2022-12-18T04:23:37;102254.41;;;-10.77;100.00
48553;BME280;34335;51.566;6.994;2022-12-18T04:26:02;102247.81;;;-10.60;100.00
48553;BME280;34335;51.566;6.994;2022-12-18T04:28:27;102246.16;;;-10.53;100.00
48553;BME280;34335;51.566;6.994;2022-12-18T04:30:53;102253.19;;;-10.57;100.00
48553;BME280;34335;51.566;6.994;2022-12-18T04:33:18;102249.88;;;-10.49;100.00
48553;BME280;34335;51.566;6.994;2022-12-18T04:35:44;102256.31;;;-10.67;100.00
48553;BME280;34335;51.566;6.994;2022-12-18T04:38:09;102259.22;;;-10.71;100.00
48553;BME280;34335;51.566;6.994;2022-12-18T04:40:36;102252.19;;;-10.67;100.00
48553;BME280;34335;51.566;6.994;2022-12-18T04:43:02;102252.91;;;-10.68;100.00
48553;BME280;34335;51.566;6.994;2022-12-18T04:45:28;102245.00;;;-10.63;100.00
48553;BME280;34335;51.566;6.994;2022-12-18T04:47:53;102241.91;;;-10.61;100.00
48553;BME280;34335;51.566;6.994;2022-12-18T04:50:18;102241.00;;;-10.61;100.00
48553;BME280;34335;51.566;6.994;2022-12-18T04:52:43;102236.09;;;-10.53;100.00
48553;BME280;34335;51.566;6.994;2022-12-18T04:55:09;102236.09;;;-10.53;100.00
48553;BME280;34335;51.566;6.994;2022-12-18T04:57:34;102238.38;;;-10.47;100.00
48553;BME280;34335;51.566;6.994;2022-12-18T04:59:59;102233.84;;;-10.42;100.00
48553;BME280;34335;51.566;6.994;2022-12-18T05:02:25;102231.88;;;-10.45;100.00
48553;BME280;34335;51.566;6.994;2022-12-18T05:04:50;102224.06;;;-10.23;100.00
48553;BME280;34335;51.566;6.994;2022-12-18T05:07:15;102224.66;;;-10.42;100.00
48553;BME280;34335;51.566;6.994;2022-12-18T05:09:40;102219.03;;;-10.23;100.00
48553;BME280;34335;51.566;6.994;2022-12-18T05:12:06;102219.63;;;-10.10;100.00
48553;BME280;34335;51.566;6.994;2022-12-18T05:14:31;102219.03;;;-10.23;100.00
48553;BME280;34335;51.566;6.994;2022-12-18T05:16:56;102217.34;;;-10.15;100.00
48553;BME280;34335;51.566;6.994;2022-12-18T05:19:22;102220.09;;;-10.21;100.00
48553;BME280;34335;51.566;6.994;2022-12-18T05:21:47;102216.84;;;-10.36;100.00
48553;BME280;34335;51.566;6.994;2022-12-18T05:24:12;102216.72;;;-10.38;100.00
48553;BME280;34335;51.566;6.994;2022-12-18T05:26:38;102220.28;;;-10.36;100.00
48553;BME280;34335;51.566;6.994;2022-12-18T05:29:03;102214.94;;;-10.39;100.00
48553;BME280;34335;51.566;6.994;2022-12-18T05:31:28;102215.56;;;-10.17;100.00
48553;BME280;34335;51.566;6.994;2022-12-18T05:33:54;102218.00;;;-10.25;100.00
48553;BME280;34335;51.566;6.994;2022-12-18T05:36:19;102218.28;;;-10.15;100.00
48553;BME280;34335;51.566;6.994;2022-12-18T05:38:44;102218.31;;;-10.22;100.00
48553;BME280;34335;51.566;6.994;2022-12-18T05:41:10;102218.41;;;-10.29;100.00
48553;BME280;34335;51.566;6.994;2022-12-18T05:43:37;102223.59;;;-10.28;100.00
48553;BME280;34335;51.566;6.994;2022-12-18T05:46:07;102231.34;;;-10.10;100.00
48553;BME280;34335;51.566;6.994;2022-12-18T05:48:33;102242.69;;;-10.14;100.00
48553;BME280;34335;51.566;6.994;2022-12-18T05:51:25;102252.31;;;-10.26;100.00
48553;BME280;34335;51.566;6.994;2022-12-18T05:53:50;102246.72;;;-10.23;100.00
48553;BME280;34335;51.566;6.994;2022-12-18T05:56:18;102233.59;;;-10.05;100.00
48553;BME280;34335;51.566;6.994;2022-12-18T05:58:44;102240.16;;;-10.14;100.00
48553;BME280;34335;51.566;6.994;2022-12-18T06:01:14;102239.94;;;-10.24;100.00
48553;BME280;34335;51.566;6.994;2022-12-18T06:03:39;102254.34;;;-10.46;100.00
48553;BME280;34335;51.566;6.994;2022-12-18T06:06:13;102256.28;;;-10.28;100.00
48553;BME280;34335;51.566;6.994;2022-12-18T06:08:38;102258.72;;;-9.97;100.00
48553;BME280;34335;51.566;6.994;2022-12-18T06:11:04;102266.00;;;-9.76;100.00
48553;BME280;34335;51.566;6.994;2022-12-18T06:13:29;102267.06;;;-9.90;100.00
48553;BME280;34335;51.566;6.994;2022-12-18T06:15:54;102283.63;;;-10.08;100.00
48553;BME280;34335;51.566;6.994;2022-12-18T06:18:20;102291.38;;;-10.29;100.00
48553;BME280;34335;51.566;6.994;2022-12-18T06:20:45;102282.72;;;-10.24;100.00
48553;BME280;34335;51.566;6.994;2022-12-18T06:23:18;102285.09;;;-9.94;100.00
48553;BME280;34335;51.566;6.994;2022-12-18T06:25:44;102276.59;;;-10.26;100.00
48553;BME280;34335;51.566;6.994;2022-12-18T06:28:09;102284.53;;;-10.70;100.00
48553;BME280;34335;51.566;6.994;2022-12-18T06:30:34;102284.31;;;-10.64;100.00
48553;BME280;34335;51.566;6.994;2022-12-18T06:33:01;102289.75;;;-10.68;100.00
48553;BME280;34335;51.566;6.994;2022-12-18T06:35:26;102280.50;;;-10.21;100.00
48553;BME280;34335;51.566;6.994;2022-12-18T06:37:51;102272.16;;;-10.52;100.00
48553;BME280;34335;51.566;6.994;2022-12-18T06:40:17;102262.19;;;-10.59;100.00
48553;BME280;34335;51.566;6.994;2022-12-18T06:42:42;102260.00;;;-10.56;100.00
48553;BME280;34335;51.566;6.994;2022-12-18T06:45:08;102261.75;;;-10.32;100.00
48553;BME280;34335;51.566;6.994;2022-12-18T06:47:33;102253.13;;;-10.34;100.00
48553;BME280;34335;51.566;6.994;2022-12-18T06:49:58;102255.84;;;-10.56;100.00
48553;BME280;34335;51.566;6.994;2022-12-18T06:52:23;102255.19;;;-10.62;100.00
48553;BME280;34335;51.566;6.994;2022-12-18T06:54:49;102254.41;;;-10.54;100.00
48553;BME280;34335;51.566;6.994;2022-12-18T06:57:14;102244.81;;;-10.65;100.00
48553;BME280;34335;51.566;6.994;2022-12-18T06:59:39;102246.72;;;-10.78;100.00
48553;BME280;34335;51.566;6.994;2022-12-18T07:02:05;102228.25;;;-10.63;100.00
48553;BME280;34335;51.566;6.994;2022-12-18T07:04:31;102231.63;;;-10.55;100.00
48553;BME280;34335;51.566;6.994;2022-12-18T07:06:57;102227.56;;;-10.14;100.00
48553;BME280;34335;51.566;6.994;2022-12-18T07:09:23;102228.81;;;-10.10;100.00
48553;BME280;34335;51.566;6.994;2022-12-18T07:11:48;102224.44;;;-9.88;100.00
48553;BME280;34335;51.566;6.994;2022-12-18T07:14:13;102231.31;;;-9.78;100.00
48553;BME280;34335;51.566;6.994;2022-12-18T07:16:39;102223.22;;;-10.08;100.00
48553;BME280;34335;51.566;6.994;2022-12-18T07:19:04;102220.94;;;-9.81;100.00
48553;BME280;34335;51.566;6.994;2022-12-18T07:21:29;102227.91;;;-10.11;100.00
48553;BME280;34335;51.566;6.994;2022-12-18T07:23:55;102222.56;;;-10.30;100.00
48553;BME280;34335;51.566;6.994;2022-12-18T07:26:21;102222.38;;;-10.31;100.00
48553;BME280;34335;51.566;6.994;2022-12-18T07:28:47;102221.25;;;-10.26;100.00
48553;BME280;34335;51.566;6.994;2022-12-18T07:31:18;102221.81;;;-10.13;100.00
48553;BME280;34335;51.566;6.994;2022-12-18T07:33:45;102212.41;;;-10.23;100.00
48553;BME280;34335;51.566;6.994;2022-12-18T07:36:11;102206.56;;;-9.98;100.00
48553;BME280;34335;51.566;6.994;2022-12-18T07:38:37;102214.25;;;-10.13;100.00
48553;BME280;34335;51.566;6.994;2022-12-18T07:41:04;102212.66;;;-9.96;100.00
48553;BME280;34335;51.566;6.994;2022-12-18T07:43:29;102216.41;;;-9.77;100.00
48553;BME280;34335;51.566;6.994;2022-12-18T07:45:55;102218.69;;;-9.87;100.00
48553;BME280;34335;51.566;6.994;2022-12-18T07:48:20;102216.16;;;-9.87;100.00
48553;BME280;34335;51.566;6.994;2022-12-18T07:50:46;102219.16;;;-9.98;100.00
48553;BME280;34335;51.566;6.994;2022-12-18T07:53:11;102218.00;;;-9.93;100.00
48553;BME280;34335;51.566;6.994;2022-12-18T07:55:36;102222.06;;;-10.03;100.00
48553;BME280;34335;51.566;6.994;2022-12-18T07:58:03;102217.63;;;-9.89;100.00
48553;BME280;34335;51.566;6.994;2022-12-18T08:00:29;102223.13;;;-10.00;100.00
48553;BME280;34335;51.566;6.994;2022-12-18T08:02:54;102231.16;;;-9.80;100.00
48553;BME280;34335;51.566;6.994;2022-12-18T08:05:20;102227.09;;;-9.71;100.00
48553;BME280;34335;51.566;6.994;2022-12-18T08:07:46;102221.16;;;-9.71;100.00
48553;BME280;34335;51.566;6.994;2022-12-18T08:10:11;102230.59;;;-9.77;100.00
48553;BME280;34335;51.566;6.994;2022-12-18T08:12:36;102222.06;;;-9.71;100.00
48553;BME280;34335;51.566;6.994;2022-12-18T08:15:02;102218.81;;;-9.53;100.00
48553;BME280;34335;51.566;6.994;2022-12-18T08:17:27;102210.09;;;-9.64;100.00
48553;BME280;34335;51.566;6.994;2022-12-18T08:19:52;102211.16;;;-9.62;100.00
48553;BME280;34335;51.566;6.994;2022-12-18T08:22:18;102207.53;;;-9.89;100.00
48553;BME280;34335;51.566;6.994;2022-12-18T08:24:43;102196.56;;;-9.74;100.00
48553;BME280;34335;51.566;6.994;2022-12-18T08:27:08;102191.56;;;-9.49;100.00
48553;BME280;34335;51.566;6.994;2022-12-18T08:29:34;102188.50;;;-9.62;100.00
48553;BME280;34335;51.566;6.994;2022-12-18T08:31:59;102168.34;;;-9.13;100.00
48553;BME280;34335;51.566;6.994;2022-12-18T08:34:25;102167.31;;;-9.15;100.00
48553;BME280;34335;51.566;6.994;2022-12-18T08:36:50;102160.41;;;-8.49;100.00
48553;BME280;34335;51.566;6.994;2022-12-18T08:39:15;102164.59;;;-8.32;100.00
48553;BME280;34335;51.566;6.994;2022-12-18T08:41:40;102154.09;;;-8.79;100.00
48553;BME280;34335;51.566;6.994;2022-12-18T08:44:09;102152.66;;;-8.59;100.00
48553;BME280;34335;51.566;6.994;2022-12-18T08:46:53;102152.53;;;-8.43;100.00
48553;BME280;34335;51.566;6.994;2022-12-18T08:49:18;102152.13;;;-7.86;100.00
48553;BME280;34335;51.566;6.994;2022-12-18T08:51:43;102156.91;;;-7.89;100.00
48553;BME280;34335;51.566;6.994;2022-12-18T08:54:11;102165.19;;;-7.55;100.00
48553;BME280;34335;51.566;6.994;2022-12-18T08:56:37;102165.50;;;-7.61;100.00
48553;BME280;34335;51.566;6.994;2022-12-18T08:59:02;102149.59;;;-7.06;100.00
48553;BME280;34335;51.566;6.994;2022-12-18T09:01:29;102146.59;;;-7.01;100.00
48553;BME280;34335;51.566;6.994;2022-12-18T09:03:54;102145.47;;;-7.14;100.00
48553;BME280;34335;51.566;6.994;2022-12-18T09:06:21;102140.44;;;-7.23;100.00
48553;BME280;34335;51.566;6.994;2022-12-18T09:08:46;102150.59;;;-6.67;100.00
48553;BME280;34335;51.566;6.994;2022-12-18T09:11:23;102148.34;;;-6.36;100.00
48553;BME280;34335;51.566;6.994;2022-12-18T09:13:49;102143.00;;;-6.39;100.00
48553;BME280;34335;51.566;6.994;2022-12-18T09:16:15;102136.88;;;-6.60;100.00
48553;BME280;34335;51.566;6.994;2022-12-18T09:18:41;102129.94;;;-6.44;100.00
48553;BME280;34335;51.566;6.994;2022-12-18T09:21:26;102142.94;;;-5.92;100.00
48553;BME280;34335;51.566;6.994;2022-12-18T09:23:53;102142.97;;;-6.11;100.00
48553;BME280;34335;51.566;6.994;2022-12-18T09:26:20;102142.38;;;-5.79;100.00
48553;BME280;34335;51.566;6.994;2022-12-18T09:28:46;102138.50;;;-5.95;100.00
48553;BME280;34335;51.566;6.994;2022-12-18T09:31:12;102127.75;;;-5.63;100.00
48553;BME280;34335;51.566;6.994;2022-12-18T09:33:39;102132.81;;;-5.63;100.00
48553;BME280;34335;51.566;6.994;2022-12-18T09:36:07;102133.09;;;-5.59;100.00
48553;BME280;34335;51.566;6.994;2022-12-18T09:38:33;102142.00;;;-5.54;100.00
48553;BME280;34335;51.566;6.994;2022-12-18T09:41:23;102139.78;;;-5.70;100.00
48553;BME280;34335;51.566;6.994;2022-12-18T09:43:56;102140.00;;;-5.97;100.00
48553;BME280;34335;51.566;6.994;2022-12-18T09:46:27;102137.34;;;-5.50;100.00
48553;BME280;34335;51.566;6.994;2022-12-18T09:48:57;102129.53;;;-5.61;100.00
48553;BME280;34335;51.566;6.994;2022-12-18T09:51:57;102144.59;;;-6.12;100.00
48553;BME280;34335;51.566;6.994;2022-12-18T09:54:34;102146.31;;;-5.53;100.00
48553;BME280;34335;51.566;6.994;2022-12-18T09:57:01;102152.22;;;-6.31;100.00
48553;BME280;34335;51.566;6.994;2022-12-18T09:59:32;102149.63;;;-6.03;100.00
48553;BME280;34335;51.566;6.994;2022-12-18T10:01:58;102146.81;;;-6.06;100.00
48553;BME280;34335;51.566;6.994;2022-12-18T10:04:24;102132.63;;;-6.04;100.00
48553;BME280;34335;51.566;6.994;2022-12-18T10:07:02;102116.91;;;-5.81;100.00
48553;BME280;34335;51.566;6.994;2022-12-18T10:12:34;102088.78;;;-5.73;100.00
48553;BME280;34335;51.566;6.994;2022-12-18T10:18:15;102089.16;;;-5.50;100.00
48553;BME280;34335;51.566;6.994;2022-12-18T10:20:49;102089.84;;;-5.32;100.00
48553;BME280;34335;51.566;6.994;2022-12-18T10:23:45;102094.50;;;-4.76;100.00
48553;BME280;34335;51.566;6.994;2022-12-18T10:26:13;102082.56;;;-4.35;100.00
48553;BME280;34335;51.566;6.994;2022-12-18T10:28:40;102087.00;;;-4.95;100.00
48553;BME280;34335;51.566;6.994;2022-12-18T10:31:14;102081.25;;;-5.13;100.00
48553;BME280;34335;51.566;6.994;2022-12-18T10:33:41;102079.25;;;-5.07;100.00
48553;BME280;34335;51.566;6.994;2022-12-18T10:36:07;102072.66;;;-4.74;100.00
48553;BME280;34335;51.566;6.994;2022-12-18T10:38:32;102079.25;;;-4.34;100.00
48553;BME280;34335;51.566;6.994;2022-12-18T10:41:03;102062.50;;;-4.32;100.00
48553;BME280;34335;51.566;6.994;2022-12-18T10:43:37;102068.53;;;-3.99;100.00
48553;BME280;34335;51.566;6.994;2022-12-18T10:48:47;102061.78;;;-3.44;100.00
48553;BME280;34335;51.566;6.994;2022-12-18T10:51:34;102059.13;;;-3.68;100.00
48553;BME280;34335;51.566;6.994;2022-12-18T10:54:04;102058.78;;;-4.15;100.00
48553;BME280;34335;51.566;6.994;2022-12-18T10:56:33;102052.13;;;-4.03;100.00
48553;BME280;34335;51.566;6.994;2022-12-18T10:59:04;102042.78;;;-3.82;100.00
48553;BME280;34335;51.566;6.994;2022-12-18T11:01:52;102040.16;;;-3.61;100.00
48553;BME280;34335;51.566;6.994;2022-12-18T11:04:27;102041.84;;;-3.72;100.00
48553;BME280;34335;51.566;6.994;2022-12-18T11:09:25;102029.78;;;-3.30;100.00
48553;BME280;34335;51.566;6.994;2022-12-18T11:11:53;102024.06;;;-3.50;100.00
48553;BME280;34335;51.566;6.994;2022-12-18T11:14:28;102029.56;;;-2.99;100.00
48553;BME280;34335;51.566;6.994;2022-12-18T11:16:55;102026.13;;;-3.34;100.00
48553;BME280;34335;51.566;6.994;2022-12-18T11:19:34;102023.75;;;-3.20;100.00
48553;BME280;34335;51.566;6.994;2022-12-18T11:22:02;102016.66;;;-3.47;100.00
48553;BME280;34335;51.566;6.994;2022-12-18T11:24:33;102016.97;;;-3.54;100.00
48553;BME280;34335;51.566;6.994;2022-12-18T11:27:02;102005.72;;;-3.23;100.00
48553;BME280;34335;51.566;6.994;2022-12-18T11:29:36;102003.94;;;-3.47;100.00
48553;BME280;34335;51.566;6.994;2022-12-18T11:32:22;101999.56;;;-3.37;100.00
48553;BME280;34335;51.566;6.994;2022-12-18T11:34:55;101990.88;;;-2.95;100.00
48553;BME280;34335;51.566;6.994;2022-12-18T11:37:23;101986.31;;;-2.99;100.00
48553;BME280;34335;51.566;6.994;2022-12-18T11:39:59;101976.06;;;-2.41;100.00
48553;BME280;34335;51.566;6.994;2022-12-18T11:47:45;101954.75;;;-2.06;100.00
48553;BME280;34335;51.566;6.994;2022-12-18T11:50:19;101956.59;;;-2.29;100.00
48553;BME280;34335;51.566;6.994;2022-12-18T11:52:45;101960.88;;;-2.40;100.00
48553;BME280;34335;51.566;6.994;2022-12-18T11:55:16;101947.38;;;-2.39;100.00
48553;BME280;34335;51.566;6.994;2022-12-18T11:57:56;101955.69;;;-2.17;100.00
48553;BME280;34335;51.566;6.994;2022-12-18T12:00:24;101957.31;;;-1.94;100.00
48553;BME280;34335;51.566;6.994;2022-12-18T12:03:18;101953.66;;;-2.10;100.00
48553;BME280;34335;51.566;6.994;2022-12-18T12:11:34;101952.00;;;-2.09;100.00
48553;BME280;34335;51.566;6.994;2022-12-18T12:16:57;101954.44;;;-2.11;100.00
48553;BME280;34335;51.566;6.994;2022-12-18T12:24:57;101935.84;;;-1.47;100.00
48553;BME280;34335;51.566;6.994;2022-12-18T12:27:44;101923.38;;;-1.43;100.00
48553;BME280;34335;51.566;6.994;2022-12-18T12:30:22;101927.06;;;-1.26;100.00
48553;BME280;34335;51.566;6.994;2022-12-18T12:38:40;101922.53;;;-0.91;100.00
48553;BME280;34335;51.566;6.994;2022-12-18T12:41:09;101931.09;;;-0.77;100.00
48553;BME280;34335;51.566;6.994;2022-12-18T12:43:57;101914.88;;;-0.64;100.00
48553;BME280;34335;51.566;6.994;2022-12-18T12:46:25;101908.91;;;-0.65;100.00
48553;BME280;34335;51.566;6.994;2022-12-18T12:51:23;101913.78;;;-0.81;100.00
48553;BME280;34335;51.566;6.994;2022-12-18T12:53:50;101910.88;;;-0.74;100.00
48553;BME280;34335;51.566;6.994;2022-12-18T12:56:18;101906.84;;;-0.70;100.00
48553;BME280;34335;51.566;6.994;2022-12-18T12:59:13;101903.38;;;-0.57;100.00
48553;BME280;34335;51.566;6.994;2022-12-18T13:04:53;101905.44;;;-0.52;100.00
48553;BME280;34335;51.566;6.994;2022-12-18T13:07:36;101916.16;;;-0.84;100.00
48553;BME280;34335;51.566;6.994;2022-12-18T13:13:02;101905.84;;;-0.59;100.00
48553;BME280;34335;51.566;6.994;2022-12-18T13:15:32;101907.41;;;-0.48;100.00
48553;BME280;34335;51.566;6.994;2022-12-18T13:18:05;101908.50;;;-0.44;100.00
48553;BME280;34335;51.566;6.994;2022-12-18T13:20:35;101901.53;;;-0.60;100.00
48553;BME280;34335;51.566;6.994;2022-12-18T13:25:51;101901.91;;;-0.54;100.00
48553;BME280;34335;51.566;6.994;2022-12-18T13:28:21;101901.00;;;-0.81;100.00
48553;BME280;34335;51.566;6.994;2022-12-18T13:30:54;101894.06;;;-0.70;100.00
48553;BME280;34335;51.566;6.994;2022-12-18T13:43:32;101882.75;;;-0.47;100.00
48553;BME280;34335;51.566;6.994;2022-12-18T13:46:18;101866.28;;;-0.37;100.00
48553;BME280;34335;51.566;6.994;2022-12-18T13:51:23;101858.00;;;-0.75;100.00
48553;BME280;34335;51.566;6.994;2022-12-18T13:53:55;101863.78;;;-0.64;100.00
48553;BME280;34335;51.566;6.994;2022-12-18T13:56:25;101854.53;;;-0.75;100.00
48553;BME280;34335;51.566;6.994;2022-12-18T14:01:33;101839.53;;;-0.84;100.00
48553;BME280;34335;51.566;6.994;2022-12-18T14:04:26;101831.84;;;-0.57;100.00
48553;BME280;34335;51.566;6.994;2022-12-18T14:06:56;101829.78;;;-0.63;100.00
48553;BME280;34335;51.566;6.994;2022-12-18T14:09:30;101824.78;;;-0.88;100.00
48553;BME280;34335;51.566;6.994;2022-12-18T14:11:57;101815.03;;;-0.67;100.00